Elbert, CO (80106)

5:10 AM MST on December 19, 2014 (GMT -0700)
Woodlake, E Black Forest, Co, | Change Station
CLOSE
Current Station
Personal Weather Station
Location: Elbert, CO
Elevation: 7490 ft
Nearby Weather Stations

Elev 7490 ft 39.05 °N, 104.60 °W | Updated 9 seconds ago

Partly Cloudy
Partly Cloudy
18.0 °F
Feels Like 18 °F
N
1.1
Wind Variable Wind from SSW
Gusts 2.2 mph

Today
High -- | Low -- °F
--% Chance of Precip.
Yesterday
High -- | Low -- °F
Precip. -- in
7:12 AM 4:38 PM
Waning Crescent, 8% visible
Pressure 30.06 in
Visibility 7.0 miles
Clouds Overcast 600 ft
Windchill 18 °F
Dew Point 16 °F
Humidity 91%
Rainfall 0.00 in
Snow Depth Not available.
UV 0 out of 12
Pollen .10 out of 12
Air Quality Not available.
Flu Activity Not available.
METAR KFLY 191154Z AUTO 00000KT 7SM OVC006 M05/M05 A3006 RMK AO2 T10501055 11027 21077

More Conditions Fewer Conditions

Pressure 30.06 in
Visibility 7.0 miles
Clouds Overcast 600 ft
Windchill 18 °F
Dew Point 16 °F
Humidity 91%
Rainfall 0.00 in
Snow Depth Not available.
UV 0 out of 12
Pollen .10 out of 12
Air Quality Not available.
Flu Activity Not available.
METAR KFLY 191154Z AUTO 00000KT 7SM OVC006 M05/M05 A3006 RMK AO2 T10501055 11027 21077

More Conditions Fewer Conditions

10-Day Weather Forecast

Almanac

Astronomy

Dec. 19, 2014 Rise Set
Actual Time
Civil Twilight
Nautical Twilight
Astronomical Twilight
Moon
Length of Visible Light
Length of Day
Tomorrow will be .
, % of the Moon is Illuminated

Today's Extremes

State Highs State Lows

Community

WunderPhotos

Upload Photos

1,778,968 photos uploaded!

WunderBlogs® & News

Nearby

Air Quality

  Air Quality AQ Index Pollutant
Not available.

Snow Depth

Station Depth Elevation

Earthquake Activity

City Distance Mag. Time & Date
Minimum magnitude displayed is 2.5.

Coastal Water Temperatures

Place Temperature

Nearby Weather Stations